Terminal Aerodrome Forecast
Issued by NWS

Home | Current Version | Previous Version | Text Only | Print | Product List | Glossary On
Versions: 1 2 3 4 5 6 7 8 9 10 11 12 13 14 15 16 17
000
FTUS43 KILX 221100
TAFDEC
TAF
KDEC 221127Z 2212/2312 VRB05KT P6SM SKC
      TEMPO 2212/2213 5SM BR
     FM221900 11007KT P6SM SKC
     FM230900 14004KT P6SM SCT250=

USA.gov is the U.S. government's official web portal to all federal, state and local government web resources and services.